sensor_id;sensor_type;location;lat;lon;timestamp;temperature;humidity
63277;DHT22;49403;51.046;13.780;2023-04-24T00:00:11;16.50;77.50
63277;DHT22;49403;51.046;13.780;2023-04-24T00:00:45;16.20;77.00
63277;DHT22;49403;51.046;13.780;2023-04-24T00:01:16;16.20;77.00
63277;DHT22;49403;51.046;13.780;2023-04-24T00:01:47;15.10;75.80
63277;DHT22;49403;51.046;13.780;2023-04-24T00:02:18;16.20;76.90
63277;DHT22;49403;51.046;13.780;2023-04-24T00:02:49;17.40;78.30
63277;DHT22;49403;51.046;13.780;2023-04-24T00:03:20;17.60;78.60
63277;DHT22;49403;51.046;13.780;2023-04-24T00:03:52;16.20;77.10
63277;DHT22;49403;51.046;13.780;2023-04-24T00:04:23;16.20;76.80
63277;DHT22;49403;51.046;13.780;2023-04-24T00:04:56;16.20;76.90
63277;DHT22;49403;51.046;13.780;2023-04-24T00:05:27;16.20;76.80
63277;DHT22;49403;51.046;13.780;2023-04-24T00:05:58;15.50;76.10
63277;DHT22;49403;51.046;13.780;2023-04-24T00:06:29;16.20;77.20
63277;DHT22;49403;51.046;13.780;2023-04-24T00:07:03;16.30;77.00
63277;DHT22;49403;51.046;13.780;2023-04-24T00:07:34;16.20;76.70
63277;DHT22;49403;51.046;13.780;2023-04-24T00:08:06;16.30;76.90
63277;DHT22;49403;51.046;13.780;2023-04-24T00:08:37;16.30;77.10
63277;DHT22;49403;51.046;13.780;2023-04-24T00:09:09;16.20;77.00
63277;DHT22;49403;51.046;13.780;2023-04-24T00:09:43;16.30;76.90
63277;DHT22;49403;51.046;13.780;2023-04-24T00:10:14;16.30;77.30
63277;DHT22;49403;51.046;13.780;2023-04-24T00:10:45;16.30;77.00
63277;DHT22;49403;51.046;13.780;2023-04-24T00:11:16;16.20;77.00
63277;DHT22;49403;51.046;13.780;2023-04-24T00:11:47;16.30;77.10
63277;DHT22;49403;51.046;13.780;2023-04-24T00:12:18;16.20;77.20
63277;DHT22;49403;51.046;13.780;2023-04-24T00:12:49;16.20;77.40
63277;DHT22;49403;51.046;13.780;2023-04-24T00:13:20;16.20;77.40
63277;DHT22;49403;51.046;13.780;2023-04-24T00:13:51;16.20;77.50
63277;DHT22;49403;51.046;13.780;2023-04-24T00:14:22;16.20;77.30
63277;DHT22;49403;51.046;13.780;2023-04-24T00:14:53;16.30;77.70
63277;DHT22;49403;51.046;13.780;2023-04-24T00:15:24;16.20;78.20
63277;DHT22;49403;51.046;13.780;2023-04-24T00:15:56;16.20;77.40
63277;DHT22;49403;51.046;13.780;2023-04-24T00:16:27;16.20;77.40
63277;DHT22;49403;51.046;13.780;2023-04-24T00:16:58;16.20;77.40
63277;DHT22;49403;51.046;13.780;2023-04-24T00:17:29;16.20;77.60
63277;DHT22;49403;51.046;13.780;2023-04-24T00:18:01;16.10;77.50
63277;DHT22;49403;51.046;13.780;2023-04-24T00:18:32;16.20;77.40
63277;DHT22;49403;51.046;13.780;2023-04-24T00:19:04;16.20;77.70
63277;DHT22;49403;51.046;13.780;2023-04-24T00:19:36;16.20;77.60
63277;DHT22;49403;51.046;13.780;2023-04-24T00:20:07;16.20;77.70
63277;DHT22;49403;51.046;13.780;2023-04-24T00:20:38;16.20;77.40
63277;DHT22;49403;51.046;13.780;2023-04-24T00:21:10;16.20;78.50
63277;DHT22;49403;51.046;13.780;2023-04-24T00:21:41;16.20;77.50
63277;DHT22;49403;51.046;13.780;2023-04-24T00:22:12;16.20;77.60
63277;DHT22;49403;51.046;13.780;2023-04-24T00:22:43;16.20;77.70
63277;DHT22;49403;51.046;13.780;2023-04-24T00:23:14;16.20;78.10
63277;DHT22;49403;51.046;13.780;2023-04-24T00:23:46;16.20;77.80
63277;DHT22;49403;51.046;13.780;2023-04-24T00:24:17;16.20;77.70
63277;DHT22;49403;51.046;13.780;2023-04-24T00:24:49;16.20;77.70
63277;DHT22;49403;51.046;13.780;2023-04-24T00:25:20;16.50;78.20
63277;DHT22;49403;51.046;13.780;2023-04-24T00:25:50;16.20;77.70
63277;DHT22;49403;51.046;13.780;2023-04-24T00:26:22;16.20;77.90
63277;DHT22;49403;51.046;13.780;2023-04-24T00:26:53;16.20;77.60
63277;DHT22;49403;51.046;13.780;2023-04-24T00:27:24;16.10;78.00
63277;DHT22;49403;51.046;13.780;2023-04-24T00:27:55;16.10;78.00
63277;DHT22;49403;51.046;13.780;2023-04-24T00:28:26;16.00;77.80
63277;DHT22;49403;51.046;13.780;2023-04-24T00:28:57;16.00;77.80
63277;DHT22;49403;51.046;13.780;2023-04-24T00:29:28;16.20;78.30
63277;DHT22;49403;51.046;13.780;2023-04-24T00:29:59;16.10;78.20
63277;DHT22;49403;51.046;13.780;2023-04-24T00:30:30;16.00;78.30
63277;DHT22;49403;51.046;13.780;2023-04-24T00:31:01;17.30;79.40
63277;DHT22;49403;51.046;13.780;2023-04-24T00:31:32;16.00;78.40
63277;DHT22;49403;51.046;13.780;2023-04-24T00:32:05;15.90;78.20
63277;DHT22;49403;51.046;13.780;2023-04-24T00:32:36;15.90;78.50
63277;DHT22;49403;51.046;13.780;2023-04-24T00:33:07;17.10;80.00
63277;DHT22;49403;51.046;13.780;2023-04-24T00:33:38;15.80;78.60
63277;DHT22;49403;51.046;13.780;2023-04-24T00:34:09;15.80;78.90
63277;DHT22;49403;51.046;13.780;2023-04-24T00:34:42;15.80;79.20
63277;DHT22;49403;51.046;13.780;2023-04-24T00:35:13;15.60;78.90
63277;DHT22;49403;51.046;13.780;2023-04-24T00:35:45;15.70;79.20
63277;DHT22;49403;51.046;13.780;2023-04-24T00:36:16;15.70;79.50
63277;DHT22;49403;51.046;13.780;2023-04-24T00:36:47;15.70;79.40
63277;DHT22;49403;51.046;13.780;2023-04-24T00:37:19;15.70;79.70
63277;DHT22;49403;51.046;13.780;2023-04-24T00:37:51;17.10;81.30
63277;DHT22;49403;51.046;13.780;2023-04-24T00:38:21;15.70;80.00
63277;DHT22;49403;51.046;13.780;2023-04-24T00:38:53;15.30;79.60
63277;DHT22;49403;51.046;13.780;2023-04-24T00:39:24;15.70;79.70
63277;DHT22;49403;51.046;13.780;2023-04-24T00:39:55;15.60;79.80
63277;DHT22;49403;51.046;13.780;2023-04-24T00:40:28;15.70;79.80
63277;DHT22;49403;51.046;13.780;2023-04-24T00:40:59;15.60;79.90
63277;DHT22;49403;51.046;13.780;2023-04-24T00:41:30;15.60;80.00
63277;DHT22;49403;51.046;13.780;2023-04-24T00:42:01;15.60;80.00
63277;DHT22;49403;51.046;13.780;2023-04-24T00:42:33;15.60;79.90
63277;DHT22;49403;51.046;13.780;2023-04-24T00:43:04;14.60;79.00
63277;DHT22;49403;51.046;13.780;2023-04-24T00:43:35;15.60;80.00
63277;DHT22;49403;51.046;13.780;2023-04-24T00:44:06;15.60;80.20
63277;DHT22;49403;51.046;13.780;2023-04-24T00:44:37;15.60;80.20
63277;DHT22;49403;51.046;13.780;2023-04-24T00:45:09;15.50;79.90
63277;DHT22;49403;51.046;13.780;2023-04-24T00:45:40;15.80;80.30
63277;DHT22;49403;51.046;13.780;2023-04-24T00:46:11;15.60;80.50
63277;DHT22;49403;51.046;13.780;2023-04-24T00:46:43;15.60;80.20
63277;DHT22;49403;51.046;13.780;2023-04-24T00:47:14;15.60;80.70
63277;DHT22;49403;51.046;13.780;2023-04-24T00:47:45;15.50;80.50
63277;DHT22;49403;51.046;13.780;2023-04-24T00:48:17;16.40;81.20
63277;DHT22;49403;51.046;13.780;2023-04-24T00:48:49;15.50;80.40
63277;DHT22;49403;51.046;13.780;2023-04-24T00:49:21;16.60;81.50
63277;DHT22;49403;51.046;13.780;2023-04-24T00:49:53;16.70;81.70
63277;DHT22;49403;51.046;13.780;2023-04-24T00:50:24;15.60;80.50
63277;DHT22;49403;51.046;13.780;2023-04-24T00:50:56;15.50;81.20
63277;DHT22;49403;51.046;13.780;2023-04-24T00:51:27;15.50;80.50
63277;DHT22;49403;51.046;13.780;2023-04-24T00:51:58;15.60;80.80
63277;DHT22;49403;51.046;13.780;2023-04-24T00:52:29;16.40;81.70
63277;DHT22;49403;51.046;13.780;2023-04-24T00:53:03;15.60;80.70
63277;DHT22;49403;51.046;13.780;2023-04-24T00:53:34;16.80;81.70
63277;DHT22;49403;51.046;13.780;2023-04-24T00:54:05;14.90;80.00
63277;DHT22;49403;51.046;13.780;2023-04-24T00:54:36;15.60;80.70
63277;DHT22;49403;51.046;13.780;2023-04-24T00:55:07;15.60;80.60
63277;DHT22;49403;51.046;13.780;2023-04-24T00:55:38;15.60;80.50
63277;DHT22;49403;51.046;13.780;2023-04-24T00:56:10;15.60;80.80
63277;DHT22;49403;51.046;13.780;2023-04-24T00:56:42;15.60;80.40
63277;DHT22;49403;51.046;13.780;2023-04-24T00:57:13;15.50;80.30
63277;DHT22;49403;51.046;13.780;2023-04-24T00:57:45;15.60;80.50
63277;DHT22;49403;51.046;13.780;2023-04-24T00:58:17;15.60;80.40
63277;DHT22;49403;51.046;13.780;2023-04-24T00:58:49;15.60;80.40
63277;DHT22;49403;51.046;13.780;2023-04-24T00:59:20;15.60;80.40
63277;DHT22;49403;51.046;13.780;2023-04-24T00:59:52;15.70;80.80
63277;DHT22;49403;51.046;13.780;2023-04-24T01:00:24;15.70;80.50
63277;DHT22;49403;51.046;13.780;2023-04-24T01:00:56;15.70;80.40
63277;DHT22;49403;51.046;13.780;2023-04-24T01:01:27;15.70;80.40
63277;DHT22;49403;51.046;13.780;2023-04-24T01:01:58;15.50;80.50
63277;DHT22;49403;51.046;13.780;2023-04-24T01:02:30;14.40;79.10
63277;DHT22;49403;51.046;13.780;2023-04-24T01:03:04;15.70;80.60
63277;DHT22;49403;51.046;13.780;2023-04-24T01:03:36;15.70;80.30
63277;DHT22;49403;51.046;13.780;2023-04-24T01:04:08;15.70;80.50
63277;DHT22;49403;51.046;13.780;2023-04-24T01:04:40;15.80;80.30
63277;DHT22;49403;51.046;13.780;2023-04-24T01:05:14;17.10;81.70
63277;DHT22;49403;51.046;13.780;2023-04-24T01:05:46;16.20;80.60
63277;DHT22;49403;51.046;13.780;2023-04-24T01:06:18;15.70;80.10
63277;DHT22;49403;51.046;13.780;2023-04-24T01:06:50;15.70;80.20
63277;DHT22;49403;51.046;13.780;2023-04-24T01:07:21;15.80;80.20
63277;DHT22;49403;51.046;13.780;2023-04-24T01:07:52;15.80;80.30
63277;DHT22;49403;51.046;13.780;2023-04-24T01:08:28;17.00;81.60
63277;DHT22;49403;51.046;13.780;2023-04-24T01:08:59;15.20;79.40
63277;DHT22;49403;51.046;13.780;2023-04-24T01:09:30;15.80;79.90
63277;DHT22;49403;51.046;13.780;2023-04-24T01:10:01;15.90;80.00
63277;DHT22;49403;51.046;13.780;2023-04-24T01:10:33;15.20;79.50
63277;DHT22;49403;51.046;13.780;2023-04-24T01:11:05;15.90;79.80
63277;DHT22;49403;51.046;13.780;2023-04-24T01:11:37;15.80;79.70
63277;DHT22;49403;51.046;13.780;2023-04-24T01:12:08;15.90;79.70
63277;DHT22;49403;51.046;13.780;2023-04-24T01:12:39;15.90;79.70
63277;DHT22;49403;51.046;13.780;2023-04-24T01:13:10;15.90;79.90
63277;DHT22;49403;51.046;13.780;2023-04-24T01:13:41;15.90;79.90
63277;DHT22;49403;51.046;13.780;2023-04-24T01:14:13;16.00;79.80
63277;DHT22;49403;51.046;13.780;2023-04-24T01:14:45;16.00;79.70
63277;DHT22;49403;51.046;13.780;2023-04-24T01:15:16;16.00;79.80
63277;DHT22;49403;51.046;13.780;2023-04-24T01:15:47;17.10;81.10
63277;DHT22;49403;51.046;13.780;2023-04-24T01:16:19;16.00;79.70
63277;DHT22;49403;51.046;13.780;2023-04-24T01:16:51;16.00;79.80
63277;DHT22;49403;51.046;13.780;2023-04-24T01:17:22;15.90;79.70
63277;DHT22;49403;51.046;13.780;2023-04-24T01:17:53;16.00;79.80
63277;DHT22;49403;51.046;13.780;2023-04-24T01:18:24;15.90;79.80
63277;DHT22;49403;51.046;13.780;2023-04-24T01:18:55;16.00;80.00
63277;DHT22;49403;51.046;13.780;2023-04-24T01:19:26;16.00;80.00
63277;DHT22;49403;51.046;13.780;2023-04-24T01:19:57;16.00;79.80
63277;DHT22;49403;51.046;13.780;2023-04-24T01:20:29;16.00;79.80
63277;DHT22;49403;51.046;13.780;2023-04-24T01:21:03;16.70;80.60
63277;DHT22;49403;51.046;13.780;2023-04-24T01:21:36;15.90;79.70
63277;DHT22;49403;51.046;13.780;2023-04-24T01:22:16;16.00;80.00
63277;DHT22;49403;51.046;13.780;2023-04-24T01:22:48;17.40;81.30
63277;DHT22;49403;51.046;13.780;2023-04-24T01:23:19;15.90;80.00
63277;DHT22;49403;51.046;13.780;2023-04-24T01:23:50;15.90;80.20
63277;DHT22;49403;51.046;13.780;2023-04-24T01:24:21;15.80;80.20
63277;DHT22;49403;51.046;13.780;2023-04-24T01:24:53;15.80;80.40
63277;DHT22;49403;51.046;13.780;2023-04-24T01:25:25;15.80;80.40
63277;DHT22;49403;51.046;13.780;2023-04-24T01:25:58;15.80;80.40
63277;DHT22;49403;51.046;13.780;2023-04-24T01:26:29;16.50;81.30
63277;DHT22;49403;51.046;13.780;2023-04-24T01:27:00;15.80;80.60
63277;DHT22;49403;51.046;13.780;2023-04-24T01:27:31;14.90;79.70
63277;DHT22;49403;51.046;13.780;2023-04-24T01:28:03;15.80;80.50
63277;DHT22;49403;51.046;13.780;2023-04-24T01:28:34;15.80;80.50
63277;DHT22;49403;51.046;13.780;2023-04-24T01:29:05;15.80;80.80
63277;DHT22;49403;51.046;13.780;2023-04-24T01:29:37;15.80;80.90
63277;DHT22;49403;51.046;13.780;2023-04-24T01:30:08;15.70;81.60
63277;DHT22;49403;51.046;13.780;2023-04-24T01:30:40;14.20;79.20
63277;DHT22;49403;51.046;13.780;2023-04-24T01:31:11;17.20;82.40
63277;DHT22;49403;51.046;13.780;2023-04-24T01:31:42;15.70;81.00
63277;DHT22;49403;51.046;13.780;2023-04-24T01:32:14;15.70;81.10
63277;DHT22;49403;51.046;13.780;2023-04-24T01:32:45;15.70;80.90
63277;DHT22;49403;51.046;13.780;2023-04-24T01:33:16;15.70;80.80
63277;DHT22;49403;51.046;13.780;2023-04-24T01:33:48;15.80;80.90
63277;DHT22;49403;51.046;13.780;2023-04-24T01:34:19;15.80;80.90
63277;DHT22;49403;51.046;13.780;2023-04-24T01:34:50;15.80;81.10
63277;DHT22;49403;51.046;13.780;2023-04-24T01:35:21;16.80;82.00
63277;DHT22;49403;51.046;13.780;2023-04-24T01:35:52;15.70;81.00
63277;DHT22;49403;51.046;13.780;2023-04-24T01:36:24;17.10;82.00
63277;DHT22;49403;51.046;13.780;2023-04-24T01:36:57;15.80;80.70
63277;DHT22;49403;51.046;13.780;2023-04-24T01:37:28;15.80;81.10
63277;DHT22;49403;51.046;13.780;2023-04-24T01:37:59;15.80;81.00
63277;DHT22;49403;51.046;13.780;2023-04-24T01:38:30;15.80;81.10
63277;DHT22;49403;51.046;13.780;2023-04-24T01:39:02;15.80;81.30
63277;DHT22;49403;51.046;13.780;2023-04-24T01:39:34;15.80;81.30
63277;DHT22;49403;51.046;13.780;2023-04-24T01:40:08;15.80;81.10
63277;DHT22;49403;51.046;13.780;2023-04-24T01:40:39;15.80;81.10
63277;DHT22;49403;51.046;13.780;2023-04-24T01:41:10;16.70;82.30
63277;DHT22;49403;51.046;13.780;2023-04-24T01:41:41;15.80;81.30
63277;DHT22;49403;51.046;13.780;2023-04-24T01:42:13;15.70;81.20
63277;DHT22;49403;51.046;13.780;2023-04-24T01:42:45;15.70;81.20
63277;DHT22;49403;51.046;13.780;2023-04-24T01:43:16;15.70;81.20
63277;DHT22;49403;51.046;13.780;2023-04-24T01:43:48;15.80;81.60
63277;DHT22;49403;51.046;13.780;2023-04-24T01:44:19;17.00;82.50
63277;DHT22;49403;51.046;13.780;2023-04-24T01:44:50;15.80;81.50
63277;DHT22;49403;51.046;13.780;2023-04-24T01:45:22;15.80;81.30
63277;DHT22;49403;51.046;13.780;2023-04-24T01:45:52;15.70;81.60
63277;DHT22;49403;51.046;13.780;2023-04-24T01:46:24;15.70;81.70
63277;DHT22;49403;51.046;13.780;2023-04-24T01:46:55;15.70;81.50
63277;DHT22;49403;51.046;13.780;2023-04-24T01:47:26;15.80;81.90
63277;DHT22;49403;51.046;13.780;2023-04-24T01:47:57;15.70;81.50
63277;DHT22;49403;51.046;13.780;2023-04-24T01:48:29;15.70;81.50
63277;DHT22;49403;51.046;13.780;2023-04-24T01:49:01;15.70;81.80
63277;DHT22;49403;51.046;13.780;2023-04-24T01:49:32;15.70;81.50
63277;DHT22;49403;51.046;13.780;2023-04-24T01:50:04;15.80;81.70
63277;DHT22;49403;51.046;13.780;2023-04-24T01:50:35;16.30;82.00
63277;DHT22;49403;51.046;13.780;2023-04-24T01:51:06;15.80;81.50
63277;DHT22;49403;51.046;13.780;2023-04-24T01:51:37;15.60;81.10
63277;DHT22;49403;51.046;13.780;2023-04-24T01:52:08;15.80;81.30
63277;DHT22;49403;51.046;13.780;2023-04-24T01:52:39;15.80;81.50
63277;DHT22;49403;51.046;13.780;2023-04-24T01:53:10;15.80;81.50
63277;DHT22;49403;51.046;13.780;2023-04-24T01:53:42;15.80;81.40
63277;DHT22;49403;51.046;13.780;2023-04-24T01:54:13;15.90;81.30
63277;DHT22;49403;51.046;13.780;2023-04-24T01:54:44;15.90;81.50
63277;DHT22;49403;51.046;13.780;2023-04-24T01:55:15;15.90;81.20
63277;DHT22;49403;51.046;13.780;2023-04-24T01:55:46;16.70;81.90
63277;DHT22;49403;51.046;13.780;2023-04-24T01:56:17;15.90;81.20
63277;DHT22;49403;51.046;13.780;2023-04-24T01:56:49;15.90;81.00
63277;DHT22;49403;51.046;13.780;2023-04-24T01:57:20;16.00;81.30
63277;DHT22;49403;51.046;13.780;2023-04-24T01:57:52;16.00;81.40
63277;DHT22;49403;51.046;13.780;2023-04-24T01:58:26;15.90;81.00
63277;DHT22;49403;51.046;13.780;2023-04-24T01:58:57;15.90;81.50
63277;DHT22;49403;51.046;13.780;2023-04-24T01:59:30;15.90;81.10
63277;DHT22;49403;51.046;13.780;2023-04-24T02:00:02;15.80;81.10
63277;DHT22;49403;51.046;13.780;2023-04-24T02:00:34;15.90;81.30
63277;DHT22;49403;51.046;13.780;2023-04-24T02:01:06;16.00;81.60
63277;DHT22;49403;51.046;13.780;2023-04-24T02:01:38;15.90;81.30
63277;DHT22;49403;51.046;13.780;2023-04-24T02:02:10;15.20;80.60
63277;DHT22;49403;51.046;13.780;2023-04-24T02:02:41;16.80;82.50
63277;DHT22;49403;51.046;13.780;2023-04-24T02:03:12;15.80;81.40
63277;DHT22;49403;51.046;13.780;2023-04-24T02:03:43;15.90;81.70
63277;DHT22;49403;51.046;13.780;2023-04-24T02:04:14;15.80;81.70
63277;DHT22;49403;51.046;13.780;2023-04-24T02:04:45;15.80;81.70
63277;DHT22;49403;51.046;13.780;2023-04-24T02:05:16;15.90;81.70
63277;DHT22;49403;51.046;13.780;2023-04-24T02:05:47;15.80;81.70
63277;DHT22;49403;51.046;13.780;2023-04-24T02:06:18;15.90;81.70
63277;DHT22;49403;51.046;13.780;2023-04-24T02:06:49;15.90;81.70
63277;DHT22;49403;51.046;13.780;2023-04-24T02:07:21;15.80;81.50
63277;DHT22;49403;51.046;13.780;2023-04-24T02:07:52;15.80;81.50
63277;DHT22;49403;51.046;13.780;2023-04-24T02:08:23;15.80;81.70
63277;DHT22;49403;51.046;13.780;2023-04-24T02:08:54;15.80;81.70
63277;DHT22;49403;51.046;13.780;2023-04-24T02:09:25;15.80;82.40
63277;DHT22;49403;51.046;13.780;2023-04-24T02:09:56;15.90;82.00
63277;DHT22;49403;51.046;13.780;2023-04-24T02:10:27;15.90;82.00
63277;DHT22;49403;51.046;13.780;2023-04-24T02:10:58;15.80;81.80
63277;DHT22;49403;51.046;13.780;2023-04-24T02:11:29;15.80;81.80
63277;DHT22;49403;51.046;13.780;2023-04-24T02:12:00;15.80;81.70
63277;DHT22;49403;51.046;13.780;2023-04-24T02:12:31;15.80;81.70
63277;DHT22;49403;51.046;13.780;2023-04-24T02:13:02;15.90;81.80
63277;DHT22;49403;51.046;13.780;2023-04-24T02:13:33;15.90;81.60
63277;DHT22;49403;51.046;13.780;2023-04-24T02:14:04;15.70;81.50
63277;DHT22;49403;51.046;13.780;2023-04-24T02:14:36;16.40;82.40
63277;DHT22;49403;51.046;13.780;2023-04-24T02:15:07;16.20;82.30
63277;DHT22;49403;51.046;13.780;2023-04-24T02:15:38;15.80;81.70
63277;DHT22;49403;51.046;13.780;2023-04-24T02:16:09;15.90;82.10
63277;DHT22;49403;51.046;13.780;2023-04-24T02:16:40;15.80;81.90
63277;DHT22;49403;51.046;13.780;2023-04-24T02:17:11;15.80;82.10
63277;DHT22;49403;51.046;13.780;2023-04-24T02:17:43;15.80;82.10
63277;DHT22;49403;51.046;13.780;2023-04-24T02:18:14;15.30;81.40
63277;DHT22;49403;51.046;13.780;2023-04-24T02:18:46;15.80;82.10
63277;DHT22;49403;51.046;13.780;2023-04-24T02:19:17;15.80;82.00
63277;DHT22;49403;51.046;13.780;2023-04-24T02:19:48;15.80;82.00
63277;DHT22;49403;51.046;13.780;2023-04-24T02:20:19;15.80;81.80
63277;DHT22;49403;51.046;13.780;2023-04-24T02:20:50;15.90;82.10
63277;DHT22;49403;51.046;13.780;2023-04-24T02:21:21;15.90;82.00
63277;DHT22;49403;51.046;13.780;2023-04-24T02:21:52;15.90;82.00
63277;DHT22;49403;51.046;13.780;2023-04-24T02:22:23;15.90;82.00
63277;DHT22;49403;51.046;13.780;2023-04-24T02:22:54;15.90;82.10
63277;DHT22;49403;51.046;13.780;2023-04-24T02:23:25;15.90;81.70
63277;DHT22;49403;51.046;13.780;2023-04-24T02:23:57;15.90;81.70
63277;DHT22;49403;51.046;13.780;2023-04-24T02:24:28;16.60;82.40
63277;DHT22;49403;51.046;13.780;2023-04-24T02:25:00;15.80;81.80
63277;DHT22;49403;51.046;13.780;2023-04-24T02:25:32;15.90;81.70
63277;DHT22;49403;51.046;13.780;2023-04-24T02:26:03;15.90;81.60
63277;DHT22;49403;51.046;13.780;2023-04-24T02:26:34;16.00;81.80
63277;DHT22;49403;51.046;13.780;2023-04-24T02:27:06;16.00;82.10
63277;DHT22;49403;51.046;13.780;2023-04-24T02:27:37;16.10;81.80
63277;DHT22;49403;51.046;13.780;2023-04-24T02:28:08;15.90;81.80
63277;DHT22;49403;51.046;13.780;2023-04-24T02:28:39;17.10;82.80
63277;DHT22;49403;51.046;13.780;2023-04-24T02:29:10;16.10;82.00
63277;DHT22;49403;51.046;13.780;2023-04-24T02:29:41;16.00;81.60
63277;DHT22;49403;51.046;13.780;2023-04-24T02:30:12;16.00;81.80
63277;DHT22;49403;51.046;13.780;2023-04-24T02:30:43;16.00;81.50
63277;DHT22;49403;51.046;13.780;2023-04-24T02:31:14;15.80;81.30
63277;DHT22;49403;51.046;13.780;2023-04-24T02:31:45;16.00;81.80
63277;DHT22;49403;51.046;13.780;2023-04-24T02:32:16;16.10;81.70
63277;DHT22;49403;51.046;13.780;2023-04-24T02:32:47;16.10;81.60
63277;DHT22;49403;51.046;13.780;2023-04-24T02:33:18;16.10;81.40
63277;DHT22;49403;51.046;13.780;2023-04-24T02:33:50;16.20;81.50
63277;DHT22;49403;51.046;13.780;2023-04-24T02:34:21;16.10;81.50
63277;DHT22;49403;51.046;13.780;2023-04-24T02:34:53;16.10;81.30
63277;DHT22;49403;51.046;13.780;2023-04-24T02:35:24;16.20;81.60
63277;DHT22;49403;51.046;13.780;2023-04-24T02:35:56;16.10;81.30
63277;DHT22;49403;51.046;13.780;2023-04-24T02:36:27;16.10;81.40
63277;DHT22;49403;51.046;13.780;2023-04-24T02:36:58;16.10;81.50
63277;DHT22;49403;51.046;13.780;2023-04-24T02:37:29;16.00;81.30
63277;DHT22;49403;51.046;13.780;2023-04-24T02:38:00;16.10;81.50
63277;DHT22;49403;51.046;13.780;2023-04-24T02:38:31;16.10;81.50
63277;DHT22;49403;51.046;13.780;2023-04-24T02:39:02;16.00;81.60
63277;DHT22;49403;51.046;13.780;2023-04-24T02:39:34;16.10;81.70
63277;DHT22;49403;51.046;13.780;2023-04-24T02:40:05;16.00;81.40
63277;DHT22;49403;51.046;13.780;2023-04-24T02:40:37;16.00;81.40
63277;DHT22;49403;51.046;13.780;2023-04-24T02:41:07;16.00;81.60
63277;DHT22;49403;51.046;13.780;2023-04-24T02:41:38;16.00;81.60
63277;DHT22;49403;51.046;13.780;2023-04-24T02:42:09;16.10;81.80
63277;DHT22;49403;51.046;13.780;2023-04-24T02:42:40;17.30;82.90
63277;DHT22;49403;51.046;13.780;2023-04-24T02:43:11;16.00;81.60
63277;DHT22;49403;51.046;13.780;2023-04-24T02:43:42;16.10;81.80
63277;DHT22;49403;51.046;13.780;2023-04-24T02:44:13;16.00;81.50
63277;DHT22;49403;51.046;13.780;2023-04-24T02:44:44;16.00;81.70
63277;DHT22;49403;51.046;13.780;2023-04-24T02:45:15;16.00;81.80
63277;DHT22;49403;51.046;13.780;2023-04-24T02:45:46;16.00;81.90
63277;DHT22;49403;51.046;13.780;2023-04-24T02:46:18;16.00;82.10
63277;DHT22;49403;51.046;13.780;2023-04-24T02:46:49;16.00;82.10
63277;DHT22;49403;51.046;13.780;2023-04-24T02:47:20;16.00;82.20
63277;DHT22;49403;51.046;13.780;2023-04-24T02:47:51;16.00;82.20
63277;DHT22;49403;51.046;13.780;2023-04-24T02:48:22;15.90;81.90
63277;DHT22;49403;51.046;13.780;2023-04-24T02:48:54;16.00;82.20
63277;DHT22;49403;51.046;13.780;2023-04-24T02:49:25;15.90;82.90
63277;DHT22;49403;51.046;13.780;2023-04-24T02:49:56;15.80;81.90
63277;DHT22;49403;51.046;13.780;2023-04-24T02:50:27;15.90;82.40
63277;DHT22;49403;51.046;13.780;2023-04-24T02:50:58;15.90;82.20
63277;DHT22;49403;51.046;13.780;2023-04-24T02:51:29;15.90;82.30
63277;DHT22;49403;51.046;13.780;2023-04-24T02:52:01;15.90;82.20
63277;DHT22;49403;51.046;13.780;2023-04-24T02:52:32;15.90;82.20
63277;DHT22;49403;51.046;13.780;2023-04-24T02:53:03;15.90;82.00
63277;DHT22;49403;51.046;13.780;2023-04-24T02:53:34;15.90;82.00
63277;DHT22;49403;51.046;13.780;2023-04-24T02:54:05;15.90;82.30
63277;DHT22;49403;51.046;13.780;2023-04-24T02:54:36;15.80;82.30
63277;DHT22;49403;51.046;13.780;2023-04-24T02:55:08;15.90;82.40
63277;DHT22;49403;51.046;13.780;2023-04-24T02:55:39;15.90;82.20
63277;DHT22;49403;51.046;13.780;2023-04-24T02:56:10;15.90;82.20
63277;DHT22;49403;51.046;13.780;2023-04-24T02:56:42;15.90;82.20
63277;DHT22;49403;51.046;13.780;2023-04-24T02:57:13;15.90;82.50
63277;DHT22;49403;51.046;13.780;2023-04-24T02:57:45;15.90;82.60
63277;DHT22;49403;51.046;13.780;2023-04-24T02:58:16;15.90;82.20
63277;DHT22;49403;51.046;13.780;2023-04-24T02:58:47;15.90;82.30
63277;DHT22;49403;51.046;13.780;2023-04-24T02:59:18;15.90;82.50
63277;DHT22;49403;51.046;13.780;2023-04-24T02:59:49;15.90;82.40
63277;DHT22;49403;51.046;13.780;2023-04-24T03:00:21;16.00;82.50
63277;DHT22;49403;51.046;13.780;2023-04-24T03:00:55;16.00;82.20
63277;DHT22;49403;51.046;13.780;2023-04-24T03:01:26;15.90;82.50
63277;DHT22;49403;51.046;13.780;2023-04-24T03:01:57;16.00;82.30
63277;DHT22;49403;51.046;13.780;2023-04-24T03:02:28;16.00;82.10
63277;DHT22;49403;51.046;13.780;2023-04-24T03:03:00;15.90;82.20
63277;DHT22;49403;51.046;13.780;2023-04-24T03:03:31;16.80;83.10
63277;DHT22;49403;51.046;13.780;2023-04-24T03:04:02;16.00;82.10
63277;DHT22;49403;51.046;13.780;2023-04-24T03:04:33;16.00;82.20
63277;DHT22;49403;51.046;13.780;2023-04-24T03:05:04;16.00;82.20
63277;DHT22;49403;51.046;13.780;2023-04-24T03:05:35;16.00;81.90
63277;DHT22;49403;51.046;13.780;2023-04-24T03:06:06;16.10;82.20
63277;DHT22;49403;51.046;13.780;2023-04-24T03:06:38;15.90;82.10
63277;DHT22;49403;51.046;13.780;2023-04-24T03:07:09;16.10;82.20
63277;DHT22;49403;51.046;13.780;2023-04-24T03:07:40;14.60;80.70
63277;DHT22;49403;51.046;13.780;2023-04-24T03:08:11;16.00;82.30
63277;DHT22;49403;51.046;13.780;2023-04-24T03:08:42;16.10;82.10
63277;DHT22;49403;51.046;13.780;2023-04-24T03:09:13;16.10;82.20
63277;DHT22;49403;51.046;13.780;2023-04-24T03:09:44;16.10;82.40
63277;DHT22;49403;51.046;13.780;2023-04-24T03:10:15;16.10;82.40
63277;DHT22;49403;51.046;13.780;2023-04-24T03:10:46;16.10;82.00
63277;DHT22;49403;51.046;13.780;2023-04-24T03:11:17;16.50;82.70
63277;DHT22;49403;51.046;13.780;2023-04-24T03:11:48;15.70;81.90
63277;DHT22;49403;51.046;13.780;2023-04-24T03:12:19;16.10;82.30
63277;DHT22;49403;51.046;13.780;2023-04-24T03:12:51;16.10;82.20
63277;DHT22;49403;51.046;13.780;2023-04-24T03:13:21;16.20;82.10
63277;DHT22;49403;51.046;13.780;2023-04-24T03:13:52;16.10;82.20
63277;DHT22;49403;51.046;13.780;2023-04-24T03:14:23;16.00;82.20
63277;DHT22;49403;51.046;13.780;2023-04-24T03:14:55;16.10;82.00